createdAt,value
2017-12-22T00:00:21.388Z,13.67
2017-12-22T00:02:47.993Z,14.53
2017-12-22T00:05:14.611Z,13.37
2017-12-22T00:07:41.208Z,13.20
2017-12-22T00:10:07.808Z,13.40
2017-12-22T00:12:34.425Z,14.33
2017-12-22T00:15:01.028Z,14.40
2017-12-22T00:17:27.625Z,14.30
2017-12-22T00:19:54.244Z,13.37
2017-12-22T00:22:26.740Z,13.30
2017-12-22T00:24:53.344Z,12.70
2017-12-22T00:27:19.992Z,12.33
2017-12-22T00:29:46.548Z,13.60
2017-12-22T00:32:13.164Z,13.97
2017-12-22T00:34:39.764Z,13.87
2017-12-22T00:37:06.363Z,13.80
2017-12-22T00:39:32.973Z,12.90
2017-12-22T00:41:59.575Z,12.73
2017-12-22T00:44:26.184Z,12.83
2017-12-22T00:46:52.805Z,14.00
2017-12-22T00:49:19.408Z,14.67
2017-12-22T00:51:46.008Z,12.93
2017-12-22T00:54:12.628Z,14.30
2017-12-22T00:56:39.236Z,13.23
2017-12-22T00:59:05.847Z,12.90
2017-12-22T01:01:32.459Z,12.87
2017-12-22T01:03:59.055Z,13.20
2017-12-22T01:06:25.648Z,13.70
2017-12-22T01:08:52.270Z,12.90
2017-12-22T01:11:18.865Z,13.33
2017-12-22T01:13:45.459Z,13.33
2017-12-22T01:16:17.927Z,13.13
2017-12-22T01:18:50.256Z,12.90
2017-12-22T01:21:16.859Z,12.57
2017-12-22T01:23:43.468Z,13.13
2017-12-22T01:26:10.068Z,12.30
2017-12-22T01:28:36.664Z,13.07
2017-12-22T01:31:03.279Z,13.67
2017-12-22T01:33:29.876Z,12.93
2017-12-22T01:35:56.472Z,12.20
2017-12-22T01:38:23.084Z,12.97
2017-12-22T01:40:49.687Z,12.83
2017-12-22T01:43:16.288Z,11.90
2017-12-22T01:45:42.900Z,12.33
2017-12-22T01:48:09.500Z,12.10
2017-12-22T01:50:36.100Z,12.00
2017-12-22T01:53:02.712Z,13.20
2017-12-22T01:55:29.315Z,12.67
2017-12-22T01:57:55.903Z,12.00
2017-12-22T02:00:22.523Z,11.97
2017-12-22T02:02:49.112Z,12.40
2017-12-22T02:05:15.712Z,12.77
2017-12-22T02:07:42.323Z,11.80
2017-12-22T02:10:08.916Z,12.20
2017-12-22T02:12:35.524Z,13.80
2017-12-22T02:15:02.153Z,13.07
2017-12-22T02:17:28.744Z,15.27
2017-12-22T02:19:55.348Z,13.60
2017-12-22T02:22:21.976Z,13.40
2017-12-22T02:24:48.573Z,12.50
2017-12-22T02:27:15.167Z,12.03
2017-12-22T02:29:41.793Z,12.90
2017-12-22T02:32:08.392Z,13.00
2017-12-22T02:34:35.016Z,12.43
2017-12-22T02:37:01.619Z,12.17
2017-12-22T02:39:28.220Z,12.30
2017-12-22T02:41:54.844Z,14.07
2017-12-22T02:44:21.439Z,13.80
2017-12-22T02:46:48.049Z,13.00
2017-12-22T02:49:14.648Z,13.70
2017-12-22T02:51:41.256Z,12.80
2017-12-22T02:54:07.862Z,12.80
2017-12-22T02:56:34.476Z,11.90
2017-12-22T02:59:01.096Z,11.97
2017-12-22T03:01:27.708Z,11.70
2017-12-22T03:03:54.308Z,11.00
2017-12-22T03:06:20.920Z,10.53
2017-12-22T03:08:47.517Z,10.60
2017-12-22T03:11:14.112Z,10.50
2017-12-22T03:13:40.716Z,10.17
2017-12-22T03:16:07.316Z,10.07
2017-12-22T03:18:33.929Z,9.97
2017-12-22T03:21:00.524Z,10.47
2017-12-22T03:23:27.121Z,10.00
2017-12-22T03:25:53.723Z,8.43
2017-12-22T03:28:20.318Z,8.70
2017-12-22T03:30:46.928Z,8.70
2017-12-22T03:33:13.519Z,9.47
2017-12-22T03:35:40.125Z,8.30
2017-12-22T03:38:06.748Z,8.30
2017-12-22T03:40:33.344Z,8.13
2017-12-22T03:42:59.944Z,7.93
2017-12-22T03:45:26.541Z,8.17
2017-12-22T03:47:53.133Z,8.23
2017-12-22T03:50:19.732Z,8.57
2017-12-22T03:52:46.323Z,8.90
2017-12-22T03:55:12.928Z,8.40
2017-12-22T03:57:39.531Z,8.37
2017-12-22T04:00:06.140Z,7.53
2017-12-22T04:02:32.739Z,8.27
2017-12-22T04:04:59.332Z,7.70
2017-12-22T04:07:25.944Z,7.40
2017-12-22T04:09:52.540Z,6.63
2017-12-22T04:12:19.136Z,6.93
2017-12-22T04:14:45.724Z,6.00
2017-12-22T04:17:12.320Z,6.30
2017-12-22T04:19:38.920Z,6.57
2017-12-22T04:22:05.516Z,6.83
2017-12-22T04:24:32.140Z,6.57
2017-12-22T04:26:58.732Z,6.73
2017-12-22T04:29:25.315Z,6.50
2017-12-22T04:31:51.911Z,5.83
2017-12-22T04:34:18.499Z,7.10
2017-12-22T04:36:45.100Z,6.03
2017-12-22T04:39:11.687Z,5.90
2017-12-22T04:41:38.297Z,6.17
2017-12-22T04:44:04.897Z,5.80
2017-12-22T04:46:31.483Z,5.40
2017-12-22T04:48:58.083Z,5.77
2017-12-22T04:51:24.672Z,5.60
2017-12-22T04:53:51.278Z,5.10
2017-12-22T04:56:17.864Z,5.20
2017-12-22T04:58:44.460Z,5.30
2017-12-22T05:01:11.052Z,4.90
2017-12-22T05:03:37.659Z,4.70
2017-12-22T05:06:04.249Z,4.60
2017-12-22T05:08:30.856Z,4.47
2017-12-22T05:10:57.452Z,4.50
2017-12-22T05:13:24.043Z,4.60
2017-12-22T05:15:50.641Z,4.27
2017-12-22T05:18:17.223Z,3.80
2017-12-22T05:20:43.825Z,3.50
2017-12-22T05:23:10.419Z,3.70
2017-12-22T05:25:37.018Z,3.90
2017-12-22T05:28:03.615Z,3.70
2017-12-22T05:30:30.204Z,4.10
2017-12-22T05:32:56.807Z,4.07
2017-12-22T05:35:23.406Z,4.17
2017-12-22T05:37:50.008Z,4.30
2017-12-22T05:40:16.601Z,3.80
2017-12-22T05:42:43.196Z,4.30
2017-12-22T05:45:09.795Z,4.00
2017-12-22T05:47:36.388Z,4.10
2017-12-22T05:50:02.991Z,4.17
2017-12-22T05:52:29.576Z,3.83
2017-12-22T05:54:56.178Z,3.87
2017-12-22T05:57:22.779Z,3.80
2017-12-22T05:59:49.372Z,4.23
2017-12-22T06:02:15.978Z,3.80
2017-12-22T06:04:42.568Z,3.90
2017-12-22T06:07:09.167Z,4.20
2017-12-22T06:09:35.763Z,3.90
2017-12-22T06:12:02.360Z,3.50
2017-12-22T06:14:28.956Z,3.80
2017-12-22T06:16:55.549Z,3.60
2017-12-22T06:19:22.145Z,3.60
2017-12-22T06:21:48.737Z,3.70
2017-12-22T06:24:15.339Z,3.80
2017-12-22T06:26:41.924Z,4.13
2017-12-22T06:29:08.512Z,4.07
2017-12-22T06:31:35.110Z,4.10
2017-12-22T06:34:01.712Z,4.20
2017-12-22T06:36:28.316Z,4.17
2017-12-22T06:38:54.907Z,3.67
2017-12-22T06:41:21.500Z,3.30
2017-12-22T06:43:48.095Z,3.60
2017-12-22T06:46:14.697Z,3.37
2017-12-22T06:48:41.289Z,3.20
2017-12-22T06:51:07.872Z,3.47
2017-12-22T06:53:34.488Z,3.97
2017-12-22T06:56:01.081Z,3.40
2017-12-22T06:58:27.690Z,3.83
2017-12-22T07:00:54.292Z,3.90
2017-12-22T07:03:20.883Z,4.10
2017-12-22T07:05:47.488Z,3.40
2017-12-22T07:08:14.079Z,3.70
2017-12-22T07:10:40.679Z,3.73
2017-12-22T07:13:07.265Z,3.53
2017-12-22T07:15:33.855Z,3.23
2017-12-22T07:18:00.468Z,3.87
2017-12-22T07:20:27.063Z,3.50
2017-12-22T07:22:53.668Z,3.23
2017-12-22T07:25:20.256Z,3.37
2017-12-22T07:27:46.867Z,3.47
2017-12-22T07:30:13.464Z,3.03
2017-12-22T07:32:40.056Z,3.60
2017-12-22T07:35:06.647Z,3.40
2017-12-22T07:37:33.245Z,3.20
2017-12-22T07:39:59.836Z,3.17
2017-12-22T07:42:26.434Z,3.10
2017-12-22T07:44:53.025Z,3.23
2017-12-22T07:47:19.613Z,2.80
2017-12-22T07:49:46.199Z,2.93
2017-12-22T07:52:12.791Z,3.50
2017-12-22T07:54:39.388Z,3.90
2017-12-22T07:57:05.988Z,4.00
2017-12-22T07:59:32.580Z,4.50
2017-12-22T08:01:59.162Z,4.80
2017-12-22T08:04:25.769Z,4.53
2017-12-22T08:06:52.347Z,4.10
2017-12-22T08:09:18.945Z,4.10
2017-12-22T08:11:45.531Z,4.30
2017-12-22T08:14:12.133Z,4.07
2017-12-22T08:16:38.728Z,3.83
2017-12-22T08:19:05.319Z,3.47
2017-12-22T08:21:31.937Z,4.10
2017-12-22T08:23:58.520Z,4.03
2017-12-22T08:26:25.141Z,3.57
2017-12-22T08:28:51.724Z,3.87
2017-12-22T08:31:18.324Z,3.97
2017-12-22T08:33:44.926Z,4.30
2017-12-22T08:36:11.505Z,4.13
2017-12-22T08:38:38.100Z,3.67
2017-12-22T08:41:04.860Z,4.43
2017-12-22T08:43:31.469Z,3.73
2017-12-22T08:45:58.055Z,3.60
2017-12-22T08:48:24.692Z,3.73
2017-12-22T08:50:51.284Z,3.83
2017-12-22T08:53:17.896Z,3.80
2017-12-22T08:55:44.608Z,3.83
2017-12-22T08:58:11.187Z,3.73
2017-12-22T09:00:37.779Z,3.77
2017-12-22T09:03:04.381Z,3.80
2017-12-22T09:05:31.001Z,3.63
2017-12-22T09:07:57.648Z,3.20
2017-12-22T09:10:24.232Z,3.40
2017-12-22T09:12:50.904Z,3.70
2017-12-22T09:15:17.496Z,3.50
2017-12-22T09:17:44.095Z,3.70
2017-12-22T09:20:10.736Z,3.87
2017-12-22T09:22:37.342Z,4.00
2017-12-22T09:25:03.990Z,3.97
2017-12-22T09:27:30.540Z,3.97
2017-12-22T09:29:57.136Z,3.73
2017-12-22T09:32:23.723Z,4.07
2017-12-22T09:34:50.321Z,4.10
2017-12-22T09:37:16.904Z,4.13
2017-12-22T09:39:43.508Z,5.00
2017-12-22T09:42:10.096Z,4.90
2017-12-22T09:44:36.697Z,5.53
2017-12-22T09:47:03.292Z,6.20
2017-12-22T09:49:29.896Z,6.90
2017-12-22T09:51:56.499Z,7.87
2017-12-22T09:54:23.100Z,7.73
2017-12-22T09:56:49.696Z,8.43
2017-12-22T09:59:16.287Z,7.80
2017-12-22T10:01:42.879Z,7.50
2017-12-22T10:04:09.492Z,7.53
2017-12-22T10:06:36.087Z,8.20
2017-12-22T10:09:02.700Z,8.48
2017-12-22T10:11:29.300Z,9.50
2017-12-22T10:13:55.912Z,9.00
2017-12-22T10:16:22.509Z,8.90
2017-12-22T10:18:49.096Z,9.93
2017-12-22T10:21:15.708Z,28.27
2017-12-22T10:23:42.312Z,24.60
2017-12-22T10:26:08.912Z,12.90
2017-12-22T10:28:35.512Z,14.47
2017-12-22T10:31:02.125Z,14.40
2017-12-22T10:33:28.724Z,10.57
2017-12-22T10:35:55.328Z,11.37
2017-12-22T10:38:21.934Z,17.17
2017-12-22T10:40:48.536Z,25.33
2017-12-22T10:43:15.146Z,12.60
2017-12-22T10:45:41.744Z,10.50
2017-12-22T10:48:08.361Z,9.73
2017-12-22T10:50:34.965Z,7.40
2017-12-22T10:53:01.556Z,7.80
2017-12-22T10:55:28.155Z,8.83
2017-12-22T10:57:54.755Z,8.53
2017-12-22T11:00:21.355Z,9.30
2017-12-22T11:02:47.959Z,11.10
2017-12-22T11:05:14.564Z,11.60
2017-12-22T11:07:41.165Z,9.93
2017-12-22T11:10:07.760Z,9.10
2017-12-22T11:12:34.368Z,8.80
2017-12-22T11:15:00.967Z,9.30
2017-12-22T11:17:27.568Z,8.97
2017-12-22T11:19:54.175Z,8.57
2017-12-22T11:22:20.776Z,8.60
2017-12-22T11:24:47.377Z,8.57
2017-12-22T11:27:13.976Z,9.63
2017-12-22T11:29:40.563Z,9.00
2017-12-22T11:32:07.176Z,9.30
2017-12-22T11:34:33.770Z,8.80
2017-12-22T11:37:00.363Z,11.27
2017-12-22T11:39:26.963Z,10.90
2017-12-22T11:41:53.560Z,9.50
2017-12-22T11:44:20.178Z,9.90
2017-12-22T11:46:46.777Z,10.47
2017-12-22T11:49:13.384Z,11.80
2017-12-22T11:51:39.991Z,10.93
2017-12-22T11:54:06.603Z,10.43
2017-12-22T11:56:33.224Z,10.50
2017-12-22T11:58:59.816Z,11.13
2017-12-22T12:01:26.411Z,10.40
2017-12-22T12:03:53.013Z,11.00
2017-12-22T12:06:19.624Z,11.10
2017-12-22T12:08:46.241Z,10.40
2017-12-22T12:11:12.835Z,10.20
2017-12-22T12:13:39.439Z,11.50
2017-12-22T12:16:06.050Z,11.50
2017-12-22T12:18:32.649Z,10.70
2017-12-22T12:20:59.260Z,10.03
2017-12-22T12:23:25.859Z,10.67
2017-12-22T12:25:52.957Z,9.83
2017-12-22T12:28:19.608Z,9.57
2017-12-22T12:30:46.174Z,10.37
2017-12-22T12:33:12.772Z,9.93
2017-12-22T12:35:39.368Z,9.50
2017-12-22T12:38:05.976Z,8.57
2017-12-22T12:40:32.572Z,8.70
2017-12-22T12:42:59.184Z,7.83
2017-12-22T12:45:25.785Z,8.50
2017-12-22T12:47:52.391Z,8.00
2017-12-22T12:50:18.987Z,7.43
2017-12-22T12:52:45.577Z,7.53
2017-12-22T12:55:12.180Z,7.13
2017-12-22T12:57:38.772Z,7.30
2017-12-22T13:00:05.389Z,7.37
2017-12-22T13:02:32.027Z,7.00
2017-12-22T13:04:58.568Z,7.73
2017-12-22T13:07:25.189Z,8.50
2017-12-22T13:09:51.780Z,8.30
2017-12-22T13:12:18.384Z,8.47
2017-12-22T13:14:44.983Z,8.83
2017-12-22T13:17:11.584Z,8.50
2017-12-22T13:19:38.184Z,8.43
2017-12-22T13:22:04.952Z,9.23
2017-12-22T13:24:31.557Z,9.00
2017-12-22T13:26:58.151Z,9.00
2017-12-22T13:29:24.761Z,9.00
2017-12-22T13:31:51.351Z,8.27
2017-12-22T13:34:17.955Z,7.87
2017-12-22T13:36:44.550Z,7.57
2017-12-22T13:39:11.150Z,7.47
2017-12-22T13:41:37.759Z,6.90
2017-12-22T13:44:04.394Z,6.83
2017-12-22T13:46:31.000Z,7.30
2017-12-22T13:48:57.639Z,6.70
2017-12-22T13:51:24.284Z,7.73
2017-12-22T13:53:50.876Z,8.23
2017-12-22T13:56:17.465Z,8.27
2017-12-22T13:58:44.066Z,8.50
2017-12-22T14:01:10.656Z,8.37
2017-12-22T14:03:37.256Z,9.00
2017-12-22T14:06:03.856Z,9.37
2017-12-22T14:08:30.467Z,9.53
2017-12-22T14:10:57.064Z,9.77
2017-12-22T14:13:23.660Z,8.63
2017-12-22T14:15:50.260Z,9.00
2017-12-22T14:18:16.856Z,9.70
2017-12-22T14:20:43.633Z,9.20
2017-12-22T14:23:10.220Z,9.20
2017-12-22T14:25:36.836Z,9.07
2017-12-22T14:28:03.427Z,9.00
2017-12-22T14:30:30.024Z,8.60
2017-12-22T14:32:56.651Z,7.83
2017-12-22T14:35:23.244Z,7.80
2017-12-22T14:37:49.879Z,8.63
2017-12-22T14:40:16.483Z,7.93
2017-12-22T14:42:43.108Z,8.50
2017-12-22T14:45:09.704Z,11.27
2017-12-22T14:47:36.303Z,9.60
2017-12-22T14:50:03.026Z,9.40
2017-12-22T14:52:29.618Z,8.73
2017-12-22T14:54:56.220Z,9.20
2017-12-22T14:57:22.804Z,9.03
2017-12-22T14:59:50.351Z,8.30
2017-12-22T15:02:16.961Z,9.37
2017-12-22T15:04:43.559Z,9.80
2017-12-22T15:07:10.163Z,9.53
2017-12-22T15:09:36.796Z,9.30
2017-12-22T15:12:03.421Z,6.93
2017-12-22T15:14:30.054Z,5.30
2017-12-22T15:16:56.660Z,4.87
2017-12-22T15:19:23.260Z,3.63
2017-12-22T15:21:49.852Z,3.60
2017-12-22T15:24:16.464Z,3.47
2017-12-22T15:26:43.064Z,3.37
2017-12-22T15:29:09.928Z,3.40
2017-12-22T15:31:36.554Z,3.50
2017-12-22T15:34:03.146Z,3.27
2017-12-22T15:36:29.740Z,3.43
2017-12-22T15:38:56.347Z,4.43
2017-12-22T15:41:22.956Z,3.97
2017-12-22T15:43:49.551Z,3.93
2017-12-22T15:46:16.160Z,4.30
2017-12-22T15:48:42.760Z,4.70
2017-12-22T15:51:09.347Z,4.80
2017-12-22T15:53:35.945Z,5.47
2017-12-22T15:56:02.543Z,6.40
2017-12-22T15:58:29.156Z,5.93
2017-12-22T16:00:55.743Z,6.40
2017-12-22T16:03:22.343Z,5.63
2017-12-22T16:05:48.938Z,6.47
2017-12-22T16:08:15.536Z,6.43
2017-12-22T16:10:42.155Z,6.60
2017-12-22T16:13:08.729Z,6.03
2017-12-22T16:15:35.323Z,6.00
2017-12-22T16:18:01.916Z,9.60
2017-12-22T16:20:28.519Z,8.20
2017-12-22T16:22:55.120Z,10.50
2017-12-22T16:25:21.709Z,8.20
2017-12-22T16:27:48.299Z,5.60
2017-12-22T16:30:14.929Z,5.53
2017-12-22T16:32:42.336Z,5.57
2017-12-22T16:35:08.947Z,10.40
2017-12-22T16:37:35.540Z,7.40
2017-12-22T16:40:02.123Z,6.80
2017-12-22T16:42:28.717Z,5.10
2017-12-22T16:44:55.315Z,5.20
2017-12-22T16:47:21.910Z,5.43
2017-12-22T16:49:48.499Z,5.53
2017-12-22T16:52:15.098Z,4.93
2017-12-22T16:54:41.752Z,5.30
2017-12-22T16:57:08.356Z,5.40
2017-12-22T16:59:34.953Z,5.00
2017-12-22T17:02:01.555Z,6.20
2017-12-22T17:04:28.148Z,7.50
2017-12-22T17:06:54.741Z,7.03
2017-12-22T17:09:21.332Z,6.83
2017-12-22T17:11:47.941Z,7.20
2017-12-22T17:14:14.538Z,6.90
2017-12-22T17:16:41.132Z,8.13
2017-12-22T17:19:07.728Z,8.00
2017-12-22T17:21:34.324Z,8.97
2017-12-22T17:24:00.917Z,8.37
2017-12-22T17:26:27.516Z,9.97
2017-12-22T17:28:54.136Z,9.33
2017-12-22T17:31:20.750Z,8.50
2017-12-22T17:33:47.327Z,9.20
2017-12-22T17:36:13.936Z,11.20
2017-12-22T17:38:40.595Z,9.67
2017-12-22T17:41:07.246Z,9.47
2017-12-22T17:43:33.787Z,9.60
2017-12-22T17:46:00.387Z,9.43
2017-12-22T17:48:27.007Z,8.87
2017-12-22T17:50:53.599Z,9.53
2017-12-22T17:53:20.191Z,8.70
2017-12-22T17:55:46.796Z,9.20
2017-12-22T17:58:13.383Z,8.37
2017-12-22T18:00:39.996Z,8.23
2017-12-22T18:03:06.585Z,7.20
2017-12-22T18:05:33.187Z,7.10
2017-12-22T18:07:59.784Z,7.50
2017-12-22T18:10:26.380Z,7.53
2017-12-22T18:12:53.950Z,8.20
2017-12-22T18:15:20.553Z,7.87
2017-12-22T18:17:47.171Z,9.43
2017-12-22T18:20:13.776Z,9.17
2017-12-22T18:22:40.376Z,10.37
2017-12-22T18:25:06.984Z,10.60
2017-12-22T18:27:33.579Z,12.30
2017-12-22T18:30:00.203Z,12.10
2017-12-22T18:32:26.801Z,11.57
2017-12-22T18:34:53.446Z,12.40
2017-12-22T18:37:20.000Z,11.90
2017-12-22T18:39:46.600Z,12.90
2017-12-22T18:42:13.204Z,12.30
2017-12-22T18:44:40.139Z,13.70
2017-12-22T18:47:06.732Z,14.67
2017-12-22T18:49:33.352Z,14.43
2017-12-22T18:51:59.947Z,14.40
2017-12-22T18:54:26.555Z,11.30
2017-12-22T18:56:53.156Z,10.93
2017-12-22T18:59:19.764Z,10.53
2017-12-22T19:01:46.379Z,8.47
2017-12-22T19:04:12.976Z,8.30
2017-12-22T19:06:39.576Z,9.00
2017-12-22T19:09:06.179Z,8.87
2017-12-22T19:11:32.788Z,9.30
2017-12-22T19:13:59.379Z,9.03
2017-12-22T19:16:25.969Z,8.00
2017-12-22T19:18:52.572Z,9.17
2017-12-22T19:21:19.167Z,9.53
2017-12-22T19:23:45.768Z,8.87
2017-12-22T19:26:12.372Z,9.27
2017-12-22T19:28:38.994Z,8.80
2017-12-22T19:31:05.579Z,8.00
2017-12-22T19:33:32.168Z,8.10
2017-12-22T19:35:58.771Z,8.33
2017-12-22T19:38:25.367Z,7.83
2017-12-22T19:40:51.972Z,8.23
2017-12-22T19:43:18.563Z,8.70
2017-12-22T19:45:45.167Z,9.40
2017-12-22T19:48:11.770Z,9.13
2017-12-22T19:50:38.367Z,8.90
2017-12-22T19:53:04.973Z,10.60
2017-12-22T19:55:31.575Z,10.07
2017-12-22T19:57:58.188Z,9.80
2017-12-22T20:00:24.788Z,9.60
2017-12-22T20:02:51.388Z,9.33
2017-12-22T20:05:17.996Z,8.63
2017-12-22T20:07:44.592Z,9.57
2017-12-22T20:10:11.189Z,9.03
2017-12-22T20:12:37.836Z,8.70
2017-12-22T20:15:04.432Z,8.70
2017-12-22T20:17:31.032Z,8.87
2017-12-22T20:19:57.651Z,9.60
2017-12-22T20:22:24.242Z,9.73
2017-12-22T20:24:50.859Z,9.60
2017-12-22T20:27:17.458Z,9.80
2017-12-22T20:29:44.079Z,9.33
2017-12-22T20:32:10.708Z,9.47
2017-12-22T20:34:37.340Z,10.57
2017-12-22T20:37:03.955Z,11.30
2017-12-22T20:39:30.556Z,11.53
2017-12-22T20:41:57.155Z,11.03
2017-12-22T20:44:23.756Z,11.93
2017-12-22T20:46:50.372Z,12.23
2017-12-22T20:49:16.973Z,14.67
2017-12-22T20:51:43.593Z,13.07
2017-12-22T20:54:10.202Z,14.30
2017-12-22T20:56:36.867Z,14.33
2017-12-22T20:59:03.476Z,15.80
2017-12-22T21:01:30.111Z,17.67
2017-12-22T21:03:56.738Z,17.30
2017-12-22T21:06:23.374Z,18.43
2017-12-22T21:08:49.968Z,17.30
2017-12-22T21:11:16.604Z,16.50
2017-12-22T21:13:43.222Z,18.10
2017-12-22T21:16:09.853Z,17.90
2017-12-22T21:18:36.447Z,18.47
2017-12-22T21:21:03.072Z,19.00
2017-12-22T21:23:29.696Z,19.03
2017-12-22T21:25:56.296Z,21.27
2017-12-22T21:28:22.908Z,18.50
2017-12-22T21:30:49.508Z,18.20
2017-12-22T21:33:16.111Z,15.70
2017-12-22T21:35:42.725Z,14.60
2017-12-22T21:38:09.325Z,13.97
2017-12-22T21:40:35.933Z,14.10
2017-12-22T21:43:02.552Z,13.73
2017-12-22T21:45:29.172Z,13.77
2017-12-22T21:47:55.772Z,12.80
2017-12-22T21:50:22.380Z,12.10
2017-12-22T21:52:48.996Z,13.27
2017-12-22T21:55:15.592Z,12.20
2017-12-22T21:57:42.209Z,13.53
2017-12-22T22:00:08.812Z,14.13
2017-12-22T22:02:35.421Z,13.57
2017-12-22T22:05:02.024Z,12.70
2017-12-22T22:07:28.630Z,13.27
2017-12-22T22:09:55.236Z,13.73
2017-12-22T22:12:21.835Z,12.70
2017-12-22T22:14:48.440Z,13.27
2017-12-22T22:17:15.087Z,12.53
2017-12-22T22:19:41.692Z,13.13
2017-12-22T22:22:08.288Z,13.03
2017-12-22T22:24:34.889Z,13.30
2017-12-22T22:27:01.603Z,13.90
2017-12-22T22:29:28.192Z,13.93
2017-12-22T22:31:54.802Z,14.73
2017-12-22T22:34:21.400Z,13.70
2017-12-22T22:36:48.041Z,13.57
2017-12-22T22:39:14.627Z,14.57
2017-12-22T22:41:41.242Z,13.33
2017-12-22T22:44:07.844Z,16.03
2017-12-22T22:46:34.452Z,16.43
2017-12-22T22:49:01.067Z,17.20
2017-12-22T22:51:27.660Z,16.63
2017-12-22T22:53:54.259Z,16.90
2017-12-22T22:56:20.864Z,15.20
2017-12-22T22:58:47.463Z,15.70
2017-12-22T23:01:14.076Z,13.97
2017-12-22T23:03:40.691Z,14.43
2017-12-22T23:06:07.296Z,13.70
2017-12-22T23:08:33.899Z,13.43
2017-12-22T23:11:00.503Z,14.00
2017-12-22T23:13:27.134Z,13.87
2017-12-22T23:15:53.728Z,13.80
2017-12-22T23:18:20.328Z,13.27
2017-12-22T23:20:46.936Z,14.60
2017-12-22T23:23:13.550Z,14.00
2017-12-22T23:25:40.156Z,13.83
2017-12-22T23:28:06.760Z,16.00
2017-12-22T23:30:33.370Z,15.50
2017-12-22T23:32:59.964Z,17.13
2017-12-22T23:35:26.568Z,17.67
2017-12-22T23:37:53.174Z,18.27
2017-12-22T23:40:19.772Z,17.50
2017-12-22T23:42:46.380Z,19.67
2017-12-22T23:45:12.981Z,18.47
2017-12-22T23:47:39.596Z,18.37
2017-12-22T23:50:06.195Z,18.67
2017-12-22T23:52:32.801Z,19.50
2017-12-22T23:54:59.407Z,19.97
2017-12-22T23:57:26.045Z,19.40
2017-12-22T23:59:52.620Z,19.93
